KLOL/LOL METAR and TAF weather

Enter ICAO airport designator
Station Type Date Time Source
KLOL METAR 2019/10/23 01:53 UTC NOAA

KLOL 230153Z AUTO 05003KT 10SM CLR 16/M02 A3027 RMK AO2 SLP249 T01611017


Station Type Date Time Source
KLOL Decoded METAR 2019/10/23 01:53 UTC NOAA

LOVELOCK DERBY FIELD, NV, United States (KLOL) 40-04N 118-34W 1189M
Oct 22, 2019 - 09:53 PM EDT / 2019.10.23 0153 UTC
Wind: from the NE (050 degrees) at 3 MPH (3 KT):0
Visibility: 10 mile(s):0
Sky conditions: clear
Temperature: 61.0 F (16.1 C)
Dew Point: 28.9 F (-1.7 C)
Relative Humidity: 29%
Pressure (altimeter): 30.27 in. Hg (1025 hPa)
ob: KLOL 230153Z AUTO 05003KT 10SM CLR 16/M02 A3027 RMK AO2 SLP249 T01611017
cycle: 2

Station Type Date Time Source
KLOL TAF 2010/01/05 05:22 UTC NOAA

TAF KLOL 050522Z 0506/0606 00000KT 1/4SM FZFG VV001
FM052000 VRB03KT 3SM BR OVC002
AMD NOT SKED

Example: see airport list